Yaupon Beach, North Carolina
Current Conditions -  °F | °C
As of 3:55 AM on Wednesday 22 Oct 2014 (Local Time) from KSUT Reporting Station
Scattered Clouds Scattered Clouds  
Wind Chill: 56°   Ceiling: Unl
Heat Index: 56°   Visibility: 10mi
Dew Point: 46°   Wind: 10mph
Humidity: 68%   Direction: 340°NNW
Pressure: 29.89"   Gusts: NA
Location:  33.9216°N, 78.1244°W
Report Text: KSUT 220755Z AUTO 34009KT 10SM SCT080 14/08 A2989 RMK AO2 T01350076
Loading
Personal Weather Stations






























Interactive Weather Map
Tropical Storm Tracking
New forecast layout! Learn more

10-Day Weather Forecast

Advertisements
Track Severe Weather on mobile